Time;durP1;ratioP1;P1;durP2;ratioP2;P2;SDS_P1;SDS_P2;PMS_P1;PMS_P2;Temp;Humidity;BMP_temperature;BMP_pressure;BME280_temperature;BME280_humidity;BME280_pressure;Samples;Min_cycle;Max_cycle;Signal;HPM_P1;HPM_P2
2021/07/27 00:01:12;;;;;;;5.18;3.40;;;;;;;18.09;63.25;96937.75;5055242;28;20556;-70
2021/07/27 00:03:39;;;;;;;4.57;3.42;;;;;;;18.06;63.92;96940.59;5055216;28;20031;-70
2021/07/27 00:06:05;;;;;;;6.97;3.92;;;;;;;18.01;64.21;96937.41;5055263;28;20025;-70
2021/07/27 00:08:34;;;;;;;4.22;3.72;;;;;;;17.92;63.74;96930.88;5055156;28;20021;-70
2021/07/27 00:11:01;;;;;;;4.63;3.47;;;;;;;17.92;64.06;96936.19;5055098;28;20025;-71
2021/07/27 00:13:26;;;;;;;5.53;4.15;;;;;;;17.85;63.82;96938.34;5054049;28;20027;-70
2021/07/27 00:15:52;;;;;;;8.98;4.85;;;;;;;17.84;63.99;96936.66;5055130;28;20100;-70
2021/07/27 00:18:17;;;;;;;6.72;3.97;;;;;;;17.80;64.11;96933.34;5055116;28;20021;-70
2021/07/27 00:20:43;;;;;;;4.65;3.65;;;;;;;17.71;63.94;96931.25;5055135;28;20021;-70
2021/07/27 00:23:09;;;;;;;5.82;4.55;;;;;;;17.70;64.66;96929.53;5054987;28;20083;-70
2021/07/27 00:25:35;;;;;;;6.20;3.80;;;;;;;17.69;64.85;96930.50;5054825;28;20027;-70
2021/07/27 00:28:00;;;;;;;5.47;3.95;;;;;;;17.66;64.89;96922.75;5054800;28;20479;-70
2021/07/27 00:30:26;;;;;;;5.82;5.03;;;;;;;17.63;65.05;96922.94;5054687;28;20061;-70
2021/07/27 00:32:51;;;;;;;7.03;3.95;;;;;;;17.55;64.71;96929.53;5054906;28;20051;-70
2021/07/27 00:35:17;;;;;;;12.73;4.32;;;;;;;17.57;65.11;96931.25;5054730;28;20036;-70
2021/07/27 00:37:44;;;;;;;7.25;4.05;;;;;;;17.58;65.17;96938.25;5054580;28;20025;-70
2021/07/27 00:40:11;;;;;;;8.55;3.88;;;;;;;17.55;65.06;96934.00;5054598;28;20029;-70
2021/07/27 00:42:47;;;;;;;5.60;4.35;;;;;;;17.49;65.22;96929.06;5054619;28;20052;-71
2021/07/27 00:45:14;;;;;;;10.13;4.95;;;;;;;17.45;65.08;96930.19;5054453;28;20021;-70
2021/07/27 00:47:40;;;;;;;5.47;4.05;;;;;;;17.51;65.19;96927.16;5054437;28;20025;-70
2021/07/27 00:50:07;;;;;;;5.53;4.13;;;;;;;17.54;65.22;96934.91;5054264;28;20397;-70
2021/07/27 00:52:35;;;;;;;6.28;4.18;;;;;;;17.50;64.96;96922.81;5054176;28;20483;-70
2021/07/27 00:55:02;;;;;;;4.32;3.55;;;;;;;17.46;65.07;96923.97;5054360;28;20033;-71
2021/07/27 00:57:29;;;;;;;6.70;4.05;;;;;;;17.42;65.13;96928.56;5054405;28;20055;-70
2021/07/27 00:59:55;;;;;;;4.85;4.15;;;;;;;17.37;65.37;96922.72;5054156;28;20032;-70
2021/07/27 01:02:20;;;;;;;6.45;4.35;;;;;;;17.34;65.49;96926.38;5054137;28;20028;-69
2021/07/27 01:04:46;;;;;;;5.63;4.22;;;;;;;17.28;65.72;96927.59;5054333;28;20109;-70
2021/07/27 01:07:12;;;;;;;4.57;4.18;;;;;;;17.24;65.49;96919.94;5054193;28;20020;-69
2021/07/27 01:09:37;;;;;;;7.13;4.47;;;;;;;17.24;65.63;96926.09;5054161;28;20104;-70
2021/07/27 01:12:03;;;;;;;7.60;4.63;;;;;;;17.15;65.46;96918.69;5053909;28;20106;-70
2021/07/27 01:14:29;;;;;;;6.93;4.03;;;;;;;17.13;65.27;96929.34;5053830;28;20021;-70
2021/07/27 01:16:54;;;;;;;4.70;4.22;;;;;;;17.12;65.83;96921.50;5053915;28;20021;-70
2021/07/27 01:43:48;;;;;;;11.30;4.32;;;;;;;16.89;66.24;96926.31;5053538;28;20071;-70
2021/07/27 01:46:17;;;;;;;8.77;4.95;;;;;;;16.82;66.50;96930.25;5053454;28;20021;-70
2021/07/27 01:48:44;;;;;;;4.70;4.20;;;;;;;16.80;66.29;96927.72;5053367;28;20028;-70
2021/07/27 01:51:10;;;;;;;6.80;4.95;;;;;;;16.74;66.13;96918.31;5053296;28;20131;-70
2021/07/27 01:53:47;;;;;;;6.22;4.53;;;;;;;16.76;66.23;96908.53;5053025;28;20049;-69
2021/07/27 01:56:17;;;;;;;5.78;4.32;;;;;;;16.75;65.93;96916.53;5053420;28;20061;-71
2021/07/27 01:58:44;;;;;;;8.23;5.68;;;;;;;16.77;66.37;96915.50;5053224;28;20383;-70
2021/07/27 02:01:10;;;;;;;5.10;4.32;;;;;;;16.75;66.40;96917.41;5053103;28;20032;-70
2021/07/27 02:03:36;;;;;;;7.07;4.22;;;;;;;16.75;66.63;96922.69;5053062;28;20021;-70
2021/07/27 02:06:02;;;;;;;5.72;4.68;;;;;;;16.71;66.49;96931.72;5053137;28;20092;-70
2021/07/27 02:08:27;;;;;;;6.65;4.20;;;;;;;16.59;66.66;96935.06;5053170;28;20490;-70
2021/07/27 02:10:58;;;;;;;5.55;5.00;;;;;;;16.57;67.00;96934.28;5052938;28;20475;-70
2021/07/27 02:13:28;;;;;;;8.68;5.07;;;;;;;16.44;66.91;96932.34;5053043;28;20111;-70
2021/07/27 02:15:54;;;;;;;;;;;;;;;16.32;67.24;96933.88;5053446;28;20025;-70
2021/07/27 02:18:23;;;;;;;14.93;4.47;;;;;;;16.35;67.16;96938.13;5053038;28;19957;-73
2021/07/27 02:20:48;;;;;;;6.80;4.88;;;;;;;16.34;67.28;96931.97;5052854;28;20029;-71
2021/07/27 02:23:14;;;;;;;8.77;4.88;;;;;;;16.41;67.25;96928.06;5052971;28;20024;-72
2021/07/27 02:25:40;;;;;;;14.52;5.25;;;;;;;16.45;67.14;96927.88;5052877;28;20083;-71
2021/07/27 02:28:11;;;;;;;6.85;4.53;;;;;;;16.45;67.07;96919.97;5052912;28;20106;-71
2021/07/27 02:30:39;;;;;;;6.50;4.35;;;;;;;16.44;67.09;96924.41;5052870;28;20040;-72
2021/07/27 02:33:05;;;;;;;8.80;4.72;;;;;;;16.45;66.92;96923.47;5053053;28;20082;-72
2021/07/27 02:35:40;;;;;;;5.47;4.95;;;;;;;16.35;67.34;96927.56;5052850;28;20028;-71
2021/07/27 02:38:05;;;;;;;7.43;5.22;;;;;;;16.35;67.28;96931.06;5054984;28;20032;-71
2021/07/27 02:40:33;;;;;;;8.13;4.82;;;;;;;16.34;67.22;96925.88;5056802;28;20017;-71
2021/07/27 02:43:01;;;;;;;8.32;5.00;;;;;;;16.28;67.41;96919.13;5056918;28;20017;-71
2021/07/27 02:45:27;;;;;;;7.22;4.85;;;;;;;16.28;67.31;96921.75;5056836;28;20124;-71
2021/07/27 02:47:52;;;;;;;5.47;4.97;;;;;;;16.28;67.46;96922.63;5056747;28;20534;-71
2021/07/27 02:50:18;;;;;;;5.72;4.95;;;;;;;16.24;66.46;96918.44;5056509;28;20067;-71
2021/07/27 02:52:44;;;;;;;5.57;4.63;;;;;;;16.25;67.02;96917.50;5056438;28;20017;-72
2021/07/27 02:55:11;;;;;;;6.50;4.88;;;;;;;16.28;67.13;96919.13;5056748;28;20485;-72
2021/07/27 02:57:37;;;;;;;10.07;4.45;;;;;;;16.30;67.09;96919.91;5056711;28;20029;-71
2021/07/27 03:00:09;;;;;;;5.88;5.00;;;;;;;16.27;67.30;96926.22;5056516;28;20100;-71
2021/07/27 03:02:36;;;;;;;4.90;4.40;;;;;;;16.25;67.32;96924.56;5056476;28;20033;-72
2021/07/27 03:05:02;;;;;;;5.97;4.40;;;;;;;16.25;67.37;96920.16;5056372;28;20104;-71
2021/07/27 03:07:48;;;;;;;7.00;4.45;;;;;;;16.24;67.43;96913.19;5056331;28;20017;-71
2021/07/27 03:10:18;;;;;;;6.43;4.32;;;;;;;16.27;67.49;96915.66;5056342;28;20024;-72
2021/07/27 03:12:48;;;;;;;7.77;5.83;;;;;;;16.29;67.44;96921.69;5056307;28;20083;-71
2021/07/27 03:15:16;;;;;;;5.70;4.45;;;;;;;16.34;66.88;96917.94;5056254;28;20258;-72
2021/07/27 03:17:42;;;;;;;7.65;5.05;;;;;;;16.41;66.85;96919.31;5056169;28;20086;-72
2021/07/27 03:20:09;;;;;;;8.60;5.00;;;;;;;16.46;66.94;96913.78;5056239;28;20020;-71
2021/07/27 03:22:35;;;;;;;7.00;4.57;;;;;;;16.40;66.73;96915.81;5054923;28;20083;-72
2021/07/27 03:25:00;;;;;;;7.07;4.93;;;;;;;16.40;66.89;96921.09;5055970;28;20021;-71
2021/07/27 03:27:26;;;;;;;6.22;4.53;;;;;;;16.47;66.35;96918.97;5055986;28;20052;-71
2021/07/27 03:29:52;;;;;;;5.78;4.32;;;;;;;16.55;66.48;96913.22;5056038;28;20364;-72
2021/07/27 03:32:20;;;;;;;5.05;4.20;;;;;;;16.65;66.59;96921.50;5055890;28;20025;-71
2021/07/27 03:34:46;;;;;;;6.97;5.32;;;;;;;16.65;66.25;96924.16;5055921;28;20475;-71
2021/07/27 03:37:12;;;;;;;7.90;4.60;;;;;;;16.65;66.55;96926.78;5055847;28;20037;-71
2021/07/27 03:39:37;;;;;;;5.10;4.13;;;;;;;16.72;66.35;96919.34;5055818;28;20083;-72
2021/07/27 03:42:03;;;;;;;6.43;4.80;;;;;;;16.75;66.36;96925.31;5055656;28;20024;-72
2021/07/27 03:44:29;;;;;;;6.13;4.70;;;;;;;16.82;66.62;96919.69;5055626;28;20033;-71
2021/07/27 03:46:55;;;;;;;5.55;4.55;;;;;;;16.90;66.46;96920.97;5055681;28;20112;-71
2021/07/27 03:49:20;;;;;;;5.65;4.35;;;;;;;16.94;66.36;96924.25;5055431;28;20033;-71
2021/07/27 03:51:46;;;;;;;8.30;4.38;;;;;;;17.05;65.92;96931.56;5055382;28;20025;-71
2021/07/27 03:54:12;;;;;;;4.50;3.95;;;;;;;17.19;65.76;96936.09;5055310;28;20048;-72
2021/07/27 03:56:41;;;;;;;5.63;4.25;;;;;;;17.40;64.56;96941.88;5055369;28;20036;-72
2021/07/27 03:59:06;;;;;;;5.90;3.70;;;;;;;17.70;63.94;96939.28;5055505;28;20068;-72
2021/07/27 04:01:32;;;;;;;6.50;3.53;;;;;;;17.93;63.46;96940.53;5055308;28;20025;-72
2021/07/27 04:03:58;;;;;;;5.65;4.28;;;;;;;18.20;63.51;96939.78;5055262;28;20021;-71
2021/07/27 04:06:23;;;;;;;5.82;3.95;;;;;;;18.51;61.94;96940.47;5055304;28;20025;-72
2021/07/27 04:08:49;;;;;;;6.30;3.80;;;;;;;18.88;61.44;96950.50;5055350;28;20094;-72
2021/07/27 04:11:15;;;;;;;6.38;3.78;;;;;;;19.18;60.93;96949.44;5055258;28;20106;-72
2021/07/27 04:13:40;;;;;;;4.25;3.42;;;;;;;19.44;59.80;96956.59;5055071;28;20025;-71
2021/07/27 04:16:06;;;;;;;4.50;3.85;;;;;;;19.77;59.63;96949.94;5055115;28;20425;-72
2021/07/27 04:18:31;;;;;;;6.60;4.00;;;;;;;20.12;58.66;96951.13;5054972;28;20108;-71
2021/07/27 04:20:59;;;;;;;6.78;3.80;;;;;;;20.40;58.27;96946.50;5055087;28;20031;-73
2021/07/27 04:34:10;;;;;;;5.75;3.60;;;;;;;22.80;52.14;96948.03;5090684;27;20522;-71
2021/07/27 04:36:35;;;;;;;5.88;3.70;;;;;;;23.00;52.92;96948.22;5090715;28;20029;-71
2021/07/27 04:39:01;;;;;;;3.70;3.20;;;;;;;23.18;51.72;96943.19;5090525;28;20078;-71
2021/07/27 04:41:27;;;;;;;4.45;3.70;;;;;;;23.43;51.96;96938.47;5090419;28;20020;-70
2021/07/27 04:43:53;;;;;;;4.53;3.17;;;;;;;23.71;52.96;96939.66;5090280;28;20064;-72
2021/07/27 04:46:18;;;;;;;5.75;3.30;;;;;;;23.93;51.01;96939.63;5090468;28;20492;-72
2021/07/27 04:48:44;;;;;;;5.20;3.10;;;;;;;24.11;50.68;96934.50;5090250;28;20052;-70
2021/07/27 04:51:09;;;;;;;4.75;3.60;;;;;;;24.34;50.32;96935.19;5090300;28;20036;-70
2021/07/27 04:53:36;;;;;;;5.88;3.60;;;;;;;24.66;50.87;96935.97;5090234;28;20378;-70
2021/07/27 04:56:03;;;;;;;5.07;3.30;;;;;;;25.01;51.13;96943.66;5090032;28;20031;-72
2021/07/27 04:58:28;;;;;;;7.18;2.90;;;;;;;25.36;50.01;96947.56;5090137;28;20031;-72
2021/07/27 05:01:01;;;;;;;3.92;3.05;;;;;;;25.65;49.36;96951.25;5090081;28;20047;-72
2021/07/27 05:03:28;;;;;;;7.88;3.38;;;;;;;25.90;47.90;96947.09;5089881;28;20028;-71
2021/07/27 05:05:54;;;;;;;7.05;2.90;;;;;;;26.12;48.16;96953.06;5090015;28;20020;-72
2021/07/27 05:08:20;;;;;;;6.38;3.40;;;;;;;26.35;48.39;96950.91;5089849;28;20016;-72
2021/07/27 05:10:45;;;;;;;5.57;3.38;;;;;;;26.67;48.29;96954.09;5090006;28;20035;-71
2021/07/27 05:13:11;;;;;;;6.90;3.00;;;;;;;27.00;48.39;96953.66;5089857;28;20465;-70
2021/07/27 05:15:36;;;;;;;5.68;3.00;;;;;;;27.28;48.48;96947.34;5089813;28;20028;-70
2021/07/27 05:18:02;;;;;;;8.65;3.20;;;;;;;27.47;46.83;96930.22;5089689;28;20016;-73
2021/07/27 05:20:28;;;;;;;5.53;3.33;;;;;;;27.77;44.69;96940.69;5089698;28;20017;-72
2021/07/27 05:22:54;;;;;;;6.57;3.53;;;;;;;28.05;44.93;96948.59;5089560;28;20070;-70
2021/07/27 05:25:20;;;;;;;6.10;2.83;;;;;;;28.37;44.56;96945.25;5089582;28;20036;-70
2021/07/27 05:27:47;;;;;;;4.68;3.40;;;;;;;28.67;43.10;96941.31;5089511;28;20066;-71
2021/07/27 05:30:14;;;;;;;7.60;3.13;;;;;;;28.89;43.41;96942.53;5089437;28;20025;-72
2021/07/27 05:32:41;;;;;;;4.10;3.25;;;;;;;29.08;43.20;96957.56;5089214;28;20134;-71
2021/07/27 05:35:07;;;;;;;7.10;3.58;;;;;;;29.34;42.50;96944.97;5075973;28;20025;-69
2021/07/27 05:37:33;;;;;;;6.45;3.33;;;;;;;29.55;42.19;96952.59;5075740;28;20021;-72
2021/07/27 05:39:58;;;;;;;6.00;3.58;;;;;;;29.75;40.73;96950.41;5075800;28;20023;-70
2021/07/27 05:42:24;;;;;;;8.57;3.97;;;;;;;29.95;37.91;96951.88;5075541;28;20051;-72
2021/07/27 05:44:50;;;;;;;3.75;3.08;;;;;;;30.12;40.41;96950.81;5074418;28;20036;-72
2021/07/27 05:47:16;;;;;;;4.05;3.20;;;;;;;30.35;38.56;96957.34;5075855;28;20374;-70
2021/07/27 05:49:42;;;;;;;5.82;3.30;;;;;;;30.36;38.34;96948.22;5075710;28;20025;-71
2021/07/27 05:52:14;;;;;;;6.05;3.15;;;;;;;30.50;39.02;96958.31;5075480;28;20028;-70
2021/07/27 05:54:45;;;;;;;6.15;2.95;;;;;;;30.74;37.39;96958.34;5075516;28;20029;-72
2021/07/27 05:57:15;;;;;;;4.47;3.20;;;;;;;30.94;37.09;96961.47;5075484;28;20029;-71
2021/07/27 05:59:42;;;;;;;9.40;3.63;;;;;;;31.11;37.16;96955.94;5075615;28;20107;-71
2021/07/27 06:02:09;;;;;;;7.30;3.42;;;;;;;31.34;37.27;96953.28;5075449;28;20557;-70
2021/07/27 06:04:35;;;;;;;4.82;3.45;;;;;;;31.57;37.38;96947.00;5075235;28;20104;-71
2021/07/27 06:07:01;;;;;;;4.55;3.10;;;;;;;31.77;34.49;96947.34;5075339;28;20104;-69
2021/07/27 06:09:27;;;;;;;6.18;3.72;;;;;;;31.61;33.24;96944.78;5075331;28;20035;-70
2021/07/27 06:11:52;;;;;;;7.85;3.40;;;;;;;31.62;34.18;96943.75;5075279;28;20112;-72
2021/07/27 06:14:18;;;;;;;5.05;3.20;;;;;;;31.80;34.32;96947.97;5075290;28;20036;-71
2021/07/27 06:16:43;;;;;;;6.38;3.60;;;;;;;31.93;34.81;96952.81;5075204;28;20021;-71
2021/07/27 06:19:09;;;;;;;5.47;3.25;;;;;;;32.16;35.58;96944.59;5075050;28;20436;-72
2021/07/27 06:21:39;;;;;;;6.35;3.53;;;;;;;32.32;36.77;96943.56;5075118;28;20381;-70
2021/07/27 06:24:09;;;;;;;6.80;3.03;;;;;;;32.52;36.75;96943.88;5075196;28;20028;-71
2021/07/27 06:26:35;;;;;;;5.57;3.10;;;;;;;32.70;35.21;96941.75;5075163;28;20031;-72
2021/07/27 06:29:02;;;;;;;4.55;2.85;;;;;;;32.93;32.57;96938.91;5074849;28;20028;-72
2021/07/27 06:31:28;;;;;;;3.90;3.00;;;;;;;33.18;33.91;96937.72;5074829;28;20063;-72
2021/07/27 06:33:54;;;;;;;7.45;2.85;;;;;;;33.49;34.41;96931.13;5074861;28;20049;-70
2021/07/27 06:36:19;;;;;;;5.88;3.67;;;;;;;33.67;33.99;96930.66;5074786;28;20100;-70
2021/07/27 06:38:45;;;;;;;6.05;3.30;;;;;;;33.74;32.08;96931.53;5074700;28;20047;-70
2021/07/27 06:41:12;;;;;;;8.48;3.58;;;;;;;33.93;34.18;96922.91;5074581;28;20489;-71
2021/07/27 06:43:39;;;;;;;10.52;3.88;;;;;;;34.07;34.10;96924.66;5074471;28;20020;-71
2021/07/27 06:46:05;;;;;;;6.28;3.40;;;;;;;34.06;30.41;96919.44;5073484;28;20020;-71
2021/07/27 06:48:31;;;;;;;10.63;3.90;;;;;;;34.04;31.61;96916.94;5074550;28;20021;-71
2021/07/27 06:50:57;;;;;;;6.25;3.30;;;;;;;34.07;31.93;96921.13;5074309;28;20041;-72
2021/07/27 06:53:23;;;;;;;4.60;2.95;;;;;;;34.12;30.87;96922.22;5074397;28;20020;-69
2021/07/27 06:55:49;;;;;;;4.75;3.17;;;;;;;34.03;32.92;96921.53;5074417;28;20111;-72
2021/07/27 06:58:15;;;;;;;4.65;3.35;;;;;;;34.22;32.75;96919.13;5074457;28;20141;-70
2021/07/27 07:00:41;;;;;;;5.70;3.65;;;;;;;34.40;32.23;96926.75;5074139;28;20426;-72
2021/07/27 07:03:10;;;;;;;6.15;3.40;;;;;;;34.60;30.95;96920.56;5074142;28;20363;-70
2021/07/27 07:05:37;;;;;;;7.10;3.38;;;;;;;34.85;31.02;96917.31;5074152;28;20074;-72
2021/07/27 07:08:03;;;;;;;6.57;3.08;;;;;;;35.12;29.35;96911.13;5074019;28;20024;-71
2021/07/27 07:10:29;;;;;;;4.63;3.00;;;;;;;35.33;29.41;96912.81;5073987;28;20473;-70
2021/07/27 07:12:55;;;;;;;4.93;3.33;;;;;;;35.42;28.37;96908.84;5074073;28;20074;-70
2021/07/27 07:15:20;;;;;;;9.57;3.63;;;;;;;35.48;28.20;96906.38;5073962;28;20024;-72
2021/07/27 07:17:46;;;;;;;4.03;3.15;;;;;;;35.40;26.83;96910.94;5073813;28;20027;-69
2021/07/27 07:20:12;;;;;;;8.95;3.33;;;;;;;35.24;28.03;96916.81;5073880;28;20496;-70
2021/07/27 07:22:38;;;;;;;7.78;3.63;;;;;;;34.73;27.66;96918.97;5073729;28;20370;-71
2021/07/27 07:25:04;;;;;;;4.75;2.83;;;;;;;34.44;27.53;96908.19;5074001;28;20027;-72
2021/07/27 07:27:29;;;;;;;8.02;3.30;;;;;;;34.21;27.61;96913.91;5073878;28;20109;-73
2021/07/27 07:29:57;;;;;;;6.00;3.17;;;;;;;33.75;28.69;96911.56;5073960;28;20466;-72
2021/07/27 07:32:22;;;;;;;5.30;2.70;;;;;;;33.46;28.81;96915.25;5073361;28;20120;-71
2021/07/27 07:34:48;;;;;;;5.25;3.08;;;;;;;33.21;28.94;96910.25;5073701;28;20055;-70
2021/07/27 07:37:14;;;;;;;5.70;2.55;;;;;;;33.41;28.72;96908.53;5073625;28;20074;-70
2021/07/27 07:39:39;;;;;;;3.47;2.90;;;;;;;33.64;28.59;96909.38;5073532;28;20025;-71
2021/07/27 07:42:05;;;;;;;7.90;3.20;;;;;;;33.83;28.22;96912.44;5072047;28;20028;-72
2021/07/27 07:44:32;;;;;;;6.18;3.00;;;;;;;34.03;29.95;96913.38;5073602;28;20028;-71
2021/07/27 07:46:58;;;;;;;7.82;3.20;;;;;;;34.11;30.18;96908.84;5073439;28;20078;-72
2021/07/27 07:49:24;;;;;;;7.78;3.38;;;;;;;34.38;30.83;96909.00;5073500;28;20048;-71
2021/07/27 07:51:50;;;;;;;6.40;3.30;;;;;;;34.76;28.32;96908.53;5073407;28;20108;-70
2021/07/27 07:54:17;;;;;;;6.35;3.17;;;;;;;35.03;28.18;96916.72;5073288;28;20047;-70
2021/07/27 07:56:46;;;;;;;3.92;3.20;;;;;;;35.29;27.50;96911.56;5072990;28;20520;-72
2021/07/27 07:59:13;;;;;;;3.50;3.17;;;;;;;35.31;26.57;96917.66;5073329;28;20028;-71
2021/07/27 08:01:44;;;;;;;9.23;3.50;;;;;;;35.20;27.43;96916.38;5073213;28;20028;-72
2021/07/27 08:04:09;;;;;;;4.13;3.00;;;;;;;35.24;26.16;96917.63;5073482;28;20040;-70
2021/07/27 08:06:35;;;;;;;3.35;2.88;;;;;;;35.19;26.79;96917.44;5073236;28;20017;-71
2021/07/27 08:09:00;;;;;;;7.45;3.88;;;;;;;35.10;28.41;96921.34;5073255;28;20028;-73
2021/07/27 08:11:26;;;;;;;5.50;2.95;;;;;;;35.28;27.98;96924.31;5073272;28;20027;-70
2021/07/27 08:13:55;;;;;;;5.90;3.10;;;;;;;35.47;26.18;96910.09;5073105;28;20029;-70
2021/07/27 08:16:20;;;;;;;7.28;3.30;;;;;;;35.70;27.31;96911.59;5073068;28;20038;-71
2021/07/27 08:18:46;;;;;;;5.55;3.05;;;;;;;35.96;29.06;96916.16;5073022;28;20104;-73
2021/07/27 08:21:12;;;;;;;9.20;3.20;;;;;;;36.06;26.94;96909.44;5073078;28;20020;-70
2021/07/27 08:23:40;;;;;;;5.32;3.38;;;;;;;36.06;24.64;96907.56;5072760;28;20059;-70
2021/07/27 08:26:06;;;;;;;5.75;3.38;;;;;;;36.32;26.81;96910.44;5073090;28;20024;-71
2021/07/27 08:28:32;;;;;;;6.82;3.42;;;;;;;36.35;25.79;96907.28;5073063;28;20070;-70
2021/07/27 08:30:58;;;;;;;10.90;3.17;;;;;;;36.25;25.33;96905.00;5072990;28;20071;-71
2021/07/27 08:33:23;;;;;;;4.53;3.42;;;;;;;36.08;24.62;96900.00;5072522;28;20033;-71
2021/07/27 08:35:49;;;;;;;6.18;3.30;;;;;;;35.86;27.45;96897.56;5072893;28;20077;-73
2021/07/27 08:38:15;;;;;;;7.07;3.30;;;;;;;35.79;26.60;96896.75;5072929;28;20019;-74
2021/07/27 08:40:42;;;;;;;6.43;3.58;;;;;;;35.58;25.12;96901.34;5072968;28;20028;-71
2021/07/27 08:43:08;;;;;;;6.30;3.90;;;;;;;35.51;27.03;96889.59;5072797;28;20412;-72
2021/07/27 08:45:34;;;;;;;6.57;3.30;;;;;;;35.59;27.02;96899.44;5072771;28;20021;-71
2021/07/27 08:48:00;;;;;;;7.85;3.30;;;;;;;35.58;28.90;96901.34;5072909;28;20027;-71
2021/07/27 08:50:26;;;;;;;4.78;3.25;;;;;;;35.63;25.86;96896.09;5072823;28;20102;-73
2021/07/27 08:52:53;;;;;;;6.60;2.90;;;;;;;35.56;27.98;96908.00;5072747;28;20020;-73
2021/07/27 08:55:19;;;;;;;10.52;3.85;;;;;;;35.06;26.73;96901.91;5072647;28;20029;-73
2021/07/27 08:57:55;;;;;;;6.47;3.55;;;;;;;35.29;28.57;96909.69;5072611;28;20066;-73
2021/07/27 09:00:20;;;;;;;11.80;3.70;;;;;;;35.35;27.73;96912.63;5072641;28;20086;-72
2021/07/27 09:02:46;;;;;;;8.40;3.53;;;;;;;35.33;29.08;96910.09;5072450;28;20032;-72
2021/07/27 09:05:14;;;;;;;6.82;3.38;;;;;;;35.50;28.61;96904.25;5072566;28;20021;-71
2021/07/27 09:07:40;;;;;;;9.48;3.67;;;;;;;35.65;28.38;96904.88;5072567;28;20359;-72
2021/07/27 09:10:18;;;;;;;9.43;3.40;;;;;;;35.62;26.46;96907.16;5075529;28;20091;-73
2021/07/27 09:12:57;;;;;;;8.40;3.50;;;;;;;35.18;29.71;96902.16;5076361;28;20020;-73
2021/07/27 09:15:24;;;;;;;5.75;3.80;;;;;;;35.21;26.63;96896.31;5076421;28;20041;-70
2021/07/27 09:18:15;;;;;;;6.72;3.65;;;;;;;35.40;28.98;96893.81;5076273;28;20028;-70
2021/07/27 09:20:49;;;;;;;8.82;4.60;;;;;;;35.64;27.54;96900.47;5076214;28;20032;-73
2021/07/27 09:23:28;;;;;;;8.60;4.35;;;;;;;35.62;26.71;96891.69;5076105;28;20029;-73
2021/07/27 09:25:56;;;;;;;4.53;3.83;;;;;;;35.33;26.90;96892.97;5076043;28;20082;-70
2021/07/27 09:28:23;;;;;;;8.00;3.53;;;;;;;35.51;26.36;96895.88;5076106;28;20429;-72
2021/07/27 09:30:56;;;;;;;7.38;3.67;;;;;;;35.64;29.22;96886.06;5075998;28;20017;-71
2021/07/27 09:33:28;;;;;;;4.30;3.42;;;;;;;35.50;26.10;96890.66;5075702;28;20493;-73
2021/07/27 09:35:54;;;;;;;4.35;3.80;;;;;;;35.41;28.96;96884.59;5074988;28;20032;-74
2021/07/27 09:38:19;;;;;;;8.25;4.07;;;;;;;35.35;29.13;96886.28;5075763;28;20028;-70
2021/07/27 09:40:57;;;;;;;4.13;3.45;;;;;;;34.88;28.45;96889.75;5075917;28;20029;-73
2021/07/27 09:43:26;;;;;;;5.82;3.75;;;;;;;34.92;28.56;96893.72;5075881;28;20028;-72
2021/07/27 09:45:54;;;;;;;6.32;3.58;;;;;;;35.26;28.41;96885.66;5075663;28;20016;-70
2021/07/27 09:48:21;;;;;;;3.95;3.53;;;;;;;35.09;28.44;96892.50;5075669;28;20093;-69
2021/07/27 09:50:52;;;;;;;6.05;3.58;;;;;;;35.13;27.76;96888.34;5075701;28;20533;-71
2021/07/27 09:53:18;;;;;;;14.05;3.95;;;;;;;35.21;28.42;96882.72;5075778;28;20029;-71
2021/07/27 09:55:44;;;;;;;6.10;3.53;;;;;;;35.12;28.80;96892.09;5075615;28;20466;-74
2021/07/27 09:58:11;;;;;;;6.13;3.95;;;;;;;35.19;28.66;96892.97;5075529;28;20536;-73
2021/07/27 10:00:55;;;;;;;7.25;3.78;;;;;;;35.19;28.08;96895.69;5075460;28;20378;-73
2021/07/27 10:03:34;;;;;;;6.30;3.50;;;;;;;35.13;27.64;96894.63;5075533;28;20123;-74
2021/07/27 10:06:02;;;;;;;6.90;3.30;;;;;;;34.97;28.26;96879.53;5075576;28;20044;-70
2021/07/27 10:08:30;;;;;;;5.90;3.40;;;;;;;35.12;27.80;96881.22;5075335;28;20024;-69
2021/07/27 10:11:06;;;;;;;6.15;4.07;;;;;;;35.27;29.77;96883.75;5075421;28;20103;-70
2021/07/27 10:13:35;;;;;;;9.20;3.55;;;;;;;35.38;28.25;96880.44;5075190;28;20024;-71
2021/07/27 10:16:01;;;;;;;10.95;4.20;;;;;;;35.32;27.49;96883.97;5075099;28;20021;-71
2021/07/27 10:18:33;;;;;;;9.48;3.72;;;;;;;35.11;27.01;96887.69;5075128;28;20078;-71
2021/07/27 10:21:23;;;;;;;8.18;4.07;;;;;;;35.19;27.41;96873.09;5074989;28;20100;-72
2021/07/27 10:23:54;;;;;;;9.73;3.95;;;;;;;35.37;28.17;96875.19;5074940;28;20028;-71
2021/07/27 10:26:31;;;;;;;12.35;3.55;;;;;;;35.45;28.45;96872.25;5075086;28;20047;-73
2021/07/27 10:28:57;;;;;;;5.65;3.50;;;;;;;35.52;26.57;96869.53;5074991;28;20378;-69
2021/07/27 10:31:40;;;;;;;8.65;4.40;;;;;;;35.60;26.71;96868.50;5074926;28;20054;-72
2021/07/27 10:34:08;;;;;;;14.40;4.07;;;;;;;35.49;28.42;96864.53;5074698;28;20131;-71
2021/07/27 10:36:35;;;;;;;6.65;3.67;;;;;;;35.40;28.83;96862.00;5075010;28;20103;-71
2021/07/27 10:39:11;;;;;;;12.38;4.30;;;;;;;35.31;27.65;96857.84;5074631;28;20020;-71
2021/07/27 10:41:44;;;;;;;9.48;4.07;;;;;;;35.28;27.66;96864.53;5074651;28;20032;-74
2021/07/27 10:44:15;;;;;;;5.53;3.92;;;;;;;35.33;28.16;96863.91;5074661;28;20078;-72
2021/07/27 10:46:44;;;;;;;13.23;4.53;;;;;;;35.45;26.53;96855.94;5074580;28;20091;-71
2021/07/27 10:49:25;;;;;;;5.05;3.75;;;;;;;35.52;27.79;96855.94;5074449;28;20029;-73
2021/07/27 10:51:58;;;;;;;5.53;3.78;;;;;;;35.48;26.87;96860.16;5074420;28;20043;-71
2021/07/27 10:54:33;;;;;;;11.13;4.50;;;;;;;35.41;25.73;96851.97;5074508;28;20043;-70
2021/07/27 10:57:03;;;;;;;8.63;4.05;;;;;;;35.07;28.36;96849.25;5074405;28;20096;-72
2021/07/27 10:59:34;;;;;;;5.65;3.75;;;;;;;35.00;28.56;96842.97;5074354;28;20016;-72
2021/07/27 11:02:01;;;;;;;9.45;3.67;;;;;;;34.89;28.46;96839.00;5074142;28;20043;-73
2021/07/27 11:04:28;;;;;;;6.15;4.05;;;;;;;35.02;28.45;96849.03;5074102;28;20025;-72
2021/07/27 11:07:05;;;;;;;7.18;3.97;;;;;;;35.07;27.45;96842.97;5074320;28;20028;-70
2021/07/27 11:09:30;;;;;;;7.25;4.28;;;;;;;34.89;28.54;96839.00;5074144;28;20478;-75
2021/07/27 11:11:58;;;;;;;6.63;4.22;;;;;;;34.92;28.02;96833.97;5074085;28;20074;-73
2021/07/27 11:14:24;;;;;;;6.32;3.90;;;;;;;35.00;29.47;96840.25;5073923;28;20028;-72
2021/07/27 11:16:50;;;;;;;12.18;4.43;;;;;;;35.10;27.15;96837.13;5073960;28;20536;-73
2021/07/27 11:19:31;;;;;;;8.07;4.38;;;;;;;35.15;27.96;96838.16;5074058;28;20025;-69
2021/07/27 11:21:58;;;;;;;11.73;4.40;;;;;;;35.33;27.55;96825.84;5073880;28;20420;-73
2021/07/27 11:24:28;;;;;;;6.35;3.83;;;;;;;35.46;27.82;96825.00;5073797;28;20071;-74
2021/07/27 11:26:54;;;;;;;12.47;4.30;;;;;;;35.42;28.12;96821.03;5073698;28;20017;-69
2021/07/27 11:29:20;;;;;;;5.35;3.80;;;;;;;35.36;27.83;96825.44;5073824;28;20333;-74
2021/07/27 11:31:52;;;;;;;10.52;4.53;;;;;;;35.42;27.41;96824.59;5073058;28;20020;-71
2021/07/27 11:34:31;;;;;;;4.80;4.13;;;;;;;35.56;27.98;96826.44;5073753;28;20047;-73
2021/07/27 11:36:58;;;;;;;10.02;4.22;;;;;;;35.59;27.72;96824.16;5073571;28;20028;-71
2021/07/27 11:39:25;;;;;;;6.78;4.20;;;;;;;35.49;27.78;96821.03;5073429;28;20488;-72
2021/07/27 11:42:01;;;;;;;5.22;4.05;;;;;;;35.52;27.01;96815.16;5073590;28;20016;-73
2021/07/27 11:44:28;;;;;;;8.30;3.97;;;;;;;35.15;27.61;96818.28;5073655;28;20020;-74
2021/07/27 11:46:54;;;;;;;8.38;4.10;;;;;;;35.27;28.42;96813.09;5073370;28;20469;-73
2021/07/27 11:49:20;;;;;;;15.00;4.60;;;;;;;35.24;27.09;96814.34;5073509;28;20021;-72
2021/07/27 11:51:45;;;;;;;10.57;4.60;;;;;;;35.16;28.35;96809.94;5073438;28;20531;-73
2021/07/27 11:54:11;;;;;;;9.95;4.18;;;;;;;35.01;28.80;96817.47;5073320;28;20017;-71
2021/07/27 11:56:47;;;;;;;10.73;5.03;;;;;;;34.61;27.77;96821.78;5073435;28;20020;-73
2021/07/27 11:59:12;;;;;;;8.80;4.30;;;;;;;34.40;28.76;96820.06;5073450;28;20020;-71
2021/07/27 12:01:39;;;;;;;19.38;4.72;;;;;;;34.36;27.48;96818.78;5073201;28;20025;-70
2021/07/27 12:04:05;;;;;;;10.90;4.20;;;;;;;34.22;27.87;96807.06;5073126;28;20013;-69
2021/07/27 12:06:31;;;;;;;6.80;4.82;;;;;;;34.25;28.33;96803.97;5073207;28;20074;-73
2021/07/27 12:09:01;;;;;;;7.22;5.07;;;;;;;34.26;27.69;96808.34;5073195;28;20044;-72